KFTY/FTY METAR and TAF weather

Enter ICAO airport designator
Station Type Date Time Source
KFTY METAR 2022/09/26 09:28 UTC NOAA

KFTY 260928Z 00000KT 1SM BR VV003 16/16 A2992 RMK AO2 VIS 1/4V2 1/2 T01610156


Station Type Date Time Source
KFTY Decoded METAR 2022/09/26 09:28 UTC NOAA

ATLANTA FULTON COUNTY AIRPORT , GA, United States (KFTY) 33-47N 84-31W 263M
Sep 26, 2022 - 05:28 AM EDT / 2022.09.26 0928 UTC
Wind: Calm:0
Visibility: 1 mile(s):0
Sky conditions: obscured
Weather: mist
Temperature: 61.0 F (16.1 C)
Dew Point: 60.1 F (15.6 C)
Relative Humidity: 96%
Pressure (altimeter): 29.92 in. Hg (1013 hPa)
ob: KFTY 260928Z 00000KT 1SM BR VV003 16/16 A2992 RMK AO2 VIS 1/4V2 1/2 T01610156
cycle: 9

Station Type Date Time Source
KFTY TAF 2022/09/26 06:24 UTC NOAA

TAF KFTY 260521Z 2606/2706 29003KT P6SM FEW120
FM261500 31010G17KT P6SM SKC
FM262300 32007KT P6SM SKC
FM270200 VRB03KT P6SM SKC

Example: see airport list